createdAt,value
2023-03-16T00:02:06.475Z,15.00
2023-03-16T00:04:37.865Z,15.27
2023-03-16T00:07:10.634Z,15.27
2023-03-16T00:09:41.295Z,15.37
2023-03-16T00:12:17.362Z,15.47
2023-03-16T00:14:47.484Z,15.43
2023-03-16T00:17:20.980Z,14.30
2023-03-16T00:19:55.340Z,13.37
2023-03-16T00:22:28.830Z,15.70
2023-03-16T00:24:56.589Z,14.03
2023-03-16T00:27:26.360Z,14.53
2023-03-16T00:29:56.114Z,16.43
2023-03-16T00:32:29.562Z,14.90
2023-03-16T00:34:57.030Z,14.67
2023-03-16T00:37:26.683Z,16.00
2023-03-16T00:39:57.757Z,14.50
2023-03-16T00:42:30.423Z,15.13
2023-03-16T00:44:59.239Z,15.10
2023-03-16T00:47:29.938Z,14.43
2023-03-16T00:49:57.628Z,13.07
2023-03-16T00:52:27.348Z,14.37
2023-03-16T00:54:55.969Z,13.43
2023-03-16T00:57:25.777Z,13.30
2023-03-16T00:59:52.940Z,13.67
2023-03-16T01:02:23.652Z,13.43
2023-03-16T01:04:54.418Z,13.03
2023-03-16T01:07:21.995Z,13.33
2023-03-16T01:09:49.035Z,14.40
2023-03-16T01:12:19.303Z,12.83
2023-03-16T01:14:47.253Z,13.67
2023-03-16T01:17:17.267Z,14.90
2023-03-16T01:19:45.270Z,12.67
2023-03-16T01:22:13.155Z,14.17
2023-03-16T01:24:41.256Z,13.97
2023-03-16T01:27:09.189Z,11.93
2023-03-16T01:29:37.816Z,13.20
2023-03-16T01:32:05.796Z,14.03
2023-03-16T01:34:34.336Z,12.97
2023-03-16T01:37:01.865Z,12.90
2023-03-16T01:39:28.933Z,12.73
2023-03-16T01:41:55.954Z,13.20
2023-03-16T01:44:30.668Z,12.90
2023-03-16T01:46:58.271Z,12.57
2023-03-16T01:49:36.914Z,12.57
2023-03-16T01:52:22.595Z,12.23
2023-03-16T01:55:00.736Z,12.40
2023-03-16T01:57:35.393Z,12.70
2023-03-16T02:00:19.999Z,12.30
2023-03-16T02:02:56.447Z,11.43
2023-03-16T02:05:54.671Z,11.63
2023-03-16T02:08:23.106Z,10.50
2023-03-16T02:10:54.757Z,10.53
2023-03-16T02:13:24.660Z,10.43
2023-03-16T02:15:53.687Z,10.07
2023-03-16T02:18:23.160Z,10.93
2023-03-16T02:21:12.081Z,10.47
2023-03-16T02:23:39.132Z,9.77
2023-03-16T02:26:33.747Z,10.37
2023-03-16T02:29:39.833Z,9.63
2023-03-16T02:32:07.124Z,9.57
2023-03-16T02:34:35.263Z,9.20
2023-03-16T02:37:03.521Z,9.67
2023-03-16T02:39:30.608Z,9.57
2023-03-16T02:41:57.902Z,9.73
2023-03-16T02:44:36.992Z,9.43
2023-03-16T02:47:11.362Z,10.17
2023-03-16T02:49:42.217Z,8.83
2023-03-16T02:52:09.914Z,8.67
2023-03-16T02:54:37.163Z,9.23
2023-03-16T02:57:05.315Z,9.30
2023-03-16T02:59:32.338Z,8.57
2023-03-16T03:01:59.539Z,9.30
2023-03-16T03:04:26.568Z,10.23
2023-03-16T03:06:53.661Z,9.37
2023-03-16T03:09:20.985Z,10.33
2023-03-16T03:11:48.080Z,9.43
2023-03-16T03:14:16.884Z,10.37
2023-03-16T03:16:46.891Z,9.87
2023-03-16T03:19:14.266Z,9.90
2023-03-16T03:21:41.837Z,10.50
2023-03-16T03:24:10.110Z,9.87
2023-03-16T03:26:40.716Z,10.47
2023-03-16T03:29:07.749Z,10.23
2023-03-16T03:31:35.648Z,11.47
2023-03-16T03:34:06.660Z,10.77
2023-03-16T03:36:35.227Z,10.90
2023-03-16T03:39:05.199Z,10.87
2023-03-16T03:41:33.646Z,11.80
2023-03-16T03:44:01.015Z,12.17
2023-03-16T03:46:28.555Z,11.90
2023-03-16T03:48:55.768Z,11.60
2023-03-16T03:51:22.831Z,10.53
2023-03-16T03:53:50.021Z,11.90
2023-03-16T03:56:17.043Z,12.77
2023-03-16T03:58:44.170Z,11.13
2023-03-16T04:01:11.201Z,12.53
2023-03-16T04:03:38.202Z,11.70
2023-03-16T04:06:07.311Z,12.13
2023-03-16T04:08:35.635Z,11.23
2023-03-16T04:11:02.685Z,11.00
2023-03-16T04:13:30.025Z,11.27
2023-03-16T04:15:59.249Z,11.13
2023-03-16T04:18:26.369Z,11.13
2023-03-16T04:20:53.414Z,12.03
2023-03-16T04:23:21.883Z,12.00
2023-03-16T04:25:48.861Z,12.23
2023-03-16T04:28:18.016Z,12.50
2023-03-16T04:30:45.178Z,11.13
2023-03-16T04:33:12.227Z,11.03
2023-03-16T04:35:39.294Z,11.50
2023-03-16T04:38:06.386Z,11.93
2023-03-16T04:40:33.373Z,10.53
2023-03-16T04:43:00.356Z,9.90
2023-03-16T04:45:27.472Z,10.70
2023-03-16T04:47:54.594Z,10.77
2023-03-16T04:50:22.821Z,11.13
2023-03-16T04:52:49.975Z,11.50
2023-03-16T04:55:17.801Z,10.77
2023-03-16T04:57:44.786Z,10.53
2023-03-16T05:00:23.406Z,10.23
2023-03-16T05:02:54.582Z,11.13
2023-03-16T05:05:22.404Z,11.53
2023-03-16T05:07:50.304Z,11.20
2023-03-16T05:10:19.258Z,11.03
2023-03-16T05:12:46.336Z,11.93
2023-03-16T05:15:14.168Z,10.87
2023-03-16T05:17:42.501Z,11.43
2023-03-16T05:20:16.223Z,11.97
2023-03-16T05:22:46.501Z,11.70
2023-03-16T05:25:15.263Z,11.50
2023-03-16T05:27:44.455Z,12.57
2023-03-16T05:30:13.697Z,10.80
2023-03-16T05:32:40.937Z,11.10
2023-03-16T05:35:10.100Z,11.47
2023-03-16T05:37:38.209Z,11.77
2023-03-16T05:40:17.395Z,11.77
2023-03-16T05:42:50.548Z,12.52
2023-03-16T05:45:18.228Z,11.93
2023-03-16T05:47:45.224Z,12.20
2023-03-16T05:50:14.432Z,13.40
2023-03-16T05:52:41.611Z,12.80
2023-03-16T05:55:09.850Z,12.90
2023-03-16T05:57:36.973Z,13.20
2023-03-16T06:00:16.752Z,12.98
2023-03-16T06:02:49.424Z,12.38
2023-03-16T06:05:19.178Z,12.27
2023-03-16T06:07:46.219Z,13.75
2023-03-16T06:10:14.629Z,13.48
2023-03-16T06:12:42.128Z,13.93
2023-03-16T06:15:11.379Z,14.07
2023-03-16T06:17:40.997Z,13.45
2023-03-16T06:20:11.438Z,12.68
2023-03-16T06:22:41.569Z,13.75
2023-03-16T06:25:10.249Z,14.07
2023-03-16T06:27:37.738Z,13.65
2023-03-16T06:30:12.089Z,14.63
2023-03-16T06:32:42.367Z,13.73
2023-03-16T06:35:10.640Z,13.85
2023-03-16T06:37:38.115Z,14.18
2023-03-16T06:40:06.459Z,15.48
2023-03-16T06:42:33.724Z,13.65
2023-03-16T06:45:00.988Z,14.93
2023-03-16T06:47:28.070Z,14.02
2023-03-16T06:49:55.402Z,14.55
2023-03-16T06:52:22.796Z,15.02
2023-03-16T06:54:49.993Z,15.30
2023-03-16T06:57:18.058Z,15.30
2023-03-16T06:59:45.158Z,14.88
2023-03-16T07:02:15.343Z,15.75
2023-03-16T07:04:42.534Z,15.07
2023-03-16T07:07:11.719Z,15.38
2023-03-16T07:09:41.536Z,14.82
2023-03-16T07:12:10.057Z,15.98
2023-03-16T07:14:37.551Z,15.63
2023-03-16T07:17:04.997Z,14.65
2023-03-16T07:19:32.268Z,14.52
2023-03-16T07:21:59.568Z,13.35
2023-03-16T07:24:26.673Z,14.27
2023-03-16T07:26:53.867Z,13.35
2023-03-16T07:29:20.881Z,13.07
2023-03-16T07:31:48.251Z,12.70
2023-03-16T07:34:15.380Z,13.13
2023-03-16T07:36:42.428Z,13.32
2023-03-16T07:39:09.881Z,13.50
2023-03-16T07:41:36.916Z,13.18
2023-03-16T07:44:04.324Z,14.10
2023-03-16T07:46:32.809Z,14.07
2023-03-16T07:48:59.966Z,13.35
2023-03-16T07:51:26.966Z,12.50
2023-03-16T07:53:54.098Z,13.70
2023-03-16T07:56:21.624Z,14.38
2023-03-16T07:58:48.673Z,11.88
2023-03-16T08:01:15.750Z,13.57
2023-03-16T08:03:43.010Z,13.70
2023-03-16T08:06:10.639Z,13.43
2023-03-16T08:08:37.703Z,12.70
2023-03-16T08:11:04.851Z,11.85
2023-03-16T08:13:31.871Z,12.57
2023-03-16T08:16:02.129Z,13.55
2023-03-16T08:18:31.019Z,13.40
2023-03-16T08:20:58.715Z,12.77
2023-03-16T08:23:26.226Z,11.88
2023-03-16T08:25:58.010Z,12.02
2023-03-16T08:28:26.087Z,11.80
2023-03-16T08:30:55.604Z,11.95
2023-03-16T08:33:23.522Z,11.90
2023-03-16T08:35:50.820Z,13.77
2023-03-16T08:38:19.324Z,11.93
2023-03-16T08:40:49.691Z,11.95
2023-03-16T08:43:19.119Z,11.45
2023-03-16T08:45:46.711Z,10.73
2023-03-16T08:48:14.411Z,11.40
2023-03-16T08:50:44.289Z,12.40
2023-03-16T08:53:13.600Z,12.43
2023-03-16T08:55:41.950Z,12.68
2023-03-16T08:58:10.469Z,10.68
2023-03-16T09:00:38.352Z,10.98
2023-03-16T09:03:06.438Z,9.90
2023-03-16T09:05:34.157Z,9.70
2023-03-16T09:08:01.695Z,9.77
2023-03-16T09:10:29.096Z,8.68
2023-03-16T09:12:56.785Z,8.63
2023-03-16T09:15:24.077Z,9.30
2023-03-16T09:17:51.151Z,8.70
2023-03-16T09:20:34.570Z,9.13
2023-03-16T09:23:01.854Z,6.75
2023-03-16T09:25:29.140Z,6.97
2023-03-16T09:27:56.377Z,6.45
2023-03-16T09:30:23.428Z,6.43
2023-03-16T09:32:50.872Z,6.88
2023-03-16T09:35:18.202Z,6.70
2023-03-16T09:38:01.198Z,6.22
2023-03-16T09:40:33.488Z,5.72
2023-03-16T09:43:35.937Z,5.10
2023-03-16T09:46:36.800Z,5.18
2023-03-16T09:49:06.525Z,4.88
2023-03-16T09:51:49.802Z,5.05
2023-03-16T09:55:07.208Z,6.20
2023-03-16T09:57:40.612Z,6.85
2023-03-16T10:00:34.252Z,6.63
2023-03-16T10:03:08.276Z,6.78
2023-03-16T10:05:37.296Z,7.57
2023-03-16T10:08:22.438Z,7.53
2023-03-16T10:11:02.235Z,7.00
2023-03-16T10:13:48.508Z,5.95
2023-03-16T10:16:23.984Z,5.75
2023-03-16T10:19:18.713Z,5.40
2023-03-16T10:21:46.948Z,5.15
2023-03-16T10:24:28.660Z,5.88
2023-03-16T10:27:01.203Z,5.68
2023-03-16T10:29:36.994Z,6.10
2023-03-16T10:32:16.620Z,5.88
2023-03-16T10:34:58.750Z,6.88
2023-03-16T10:37:30.032Z,6.20
2023-03-16T10:39:57.384Z,6.10
2023-03-16T10:42:25.110Z,6.45
2023-03-16T10:45:01.775Z,6.55
2023-03-16T10:47:33.656Z,7.03
2023-03-16T10:50:14.405Z,6.15
2023-03-16T10:52:47.006Z,6.43
2023-03-16T10:55:26.945Z,5.32
2023-03-16T10:57:56.314Z,5.32
2023-03-16T11:00:34.641Z,6.28
2023-03-16T11:03:12.555Z,6.35
2023-03-16T11:05:39.698Z,4.65
2023-03-16T11:08:13.643Z,4.25
2023-03-16T11:10:55.638Z,5.03
2023-03-16T11:13:35.304Z,3.42
2023-03-16T11:16:24.207Z,3.65
2023-03-16T11:19:04.140Z,3.17
2023-03-16T11:22:19.999Z,4.05
2023-03-16T11:25:20.432Z,3.38
2023-03-16T11:28:13.008Z,3.35
2023-03-16T11:31:02.983Z,3.63
2023-03-16T11:33:32.103Z,3.83
2023-03-16T11:36:20.435Z,4.82
2023-03-16T11:39:14.144Z,5.20
2023-03-16T11:42:09.580Z,4.82
2023-03-16T11:44:57.483Z,5.20
2023-03-16T11:48:04.304Z,5.72
2023-03-16T11:50:49.768Z,5.32
2023-03-16T11:53:25.549Z,5.05
2023-03-16T11:56:10.655Z,4.45
2023-03-16T11:59:14.266Z,5.25
2023-03-16T12:02:13.361Z,4.82
2023-03-16T12:05:33.666Z,4.93
2023-03-16T12:08:38.321Z,4.63
2023-03-16T12:11:40.949Z,5.60
2023-03-16T12:14:26.695Z,5.28
2023-03-16T12:17:15.862Z,5.32
2023-03-16T12:20:14.063Z,5.18
2023-03-16T12:22:59.952Z,4.65
2023-03-16T12:25:40.935Z,5.05
2023-03-16T12:28:27.730Z,5.30
2023-03-16T12:31:15.394Z,4.68
2023-03-16T12:34:09.057Z,5.70
2023-03-16T12:37:02.596Z,5.40
2023-03-16T12:40:09.173Z,5.00
2023-03-16T12:43:08.357Z,5.28
2023-03-16T12:46:11.810Z,4.88
2023-03-16T12:48:52.308Z,4.65
2023-03-16T12:51:19.434Z,5.03
2023-03-16T12:53:55.339Z,4.75
2023-03-16T12:56:44.697Z,5.05
2023-03-16T12:59:21.069Z,5.07
2023-03-16T13:02:03.670Z,4.65
2023-03-16T13:04:41.707Z,3.72
2023-03-16T13:07:22.769Z,4.40
2023-03-16T13:10:10.086Z,4.43
2023-03-16T13:12:41.799Z,4.20
2023-03-16T13:15:22.148Z,3.85
2023-03-16T13:18:04.601Z,4.40
2023-03-16T13:20:50.837Z,4.18
2023-03-16T13:23:22.350Z,4.32
2023-03-16T13:26:27.159Z,4.93
2023-03-16T13:28:55.499Z,4.22
2023-03-16T13:31:35.947Z,3.90
2023-03-16T13:34:06.921Z,4.95
2023-03-16T13:36:35.579Z,4.10
2023-03-16T13:39:23.385Z,3.92
2023-03-16T13:42:20.960Z,3.92
2023-03-16T13:44:48.568Z,3.65
2023-03-16T13:47:20.183Z,4.70
2023-03-16T13:49:55.929Z,3.97
2023-03-16T13:52:31.269Z,4.60
2023-03-16T13:55:01.953Z,4.38
2023-03-16T13:57:35.547Z,4.55
2023-03-16T14:00:26.624Z,3.90
2023-03-16T14:03:14.413Z,4.50
2023-03-16T14:05:41.643Z,3.95
2023-03-16T14:08:23.376Z,3.15
2023-03-16T14:10:53.570Z,4.13
2023-03-16T14:13:32.337Z,4.75
2023-03-16T14:16:15.365Z,4.35
2023-03-16T14:19:06.139Z,3.45
2023-03-16T14:21:34.776Z,3.72
2023-03-16T14:24:20.144Z,3.35
2023-03-16T14:26:48.408Z,3.13
2023-03-16T14:29:42.623Z,4.13
2023-03-16T14:32:30.320Z,4.00
2023-03-16T14:35:10.701Z,3.95
2023-03-16T14:37:38.396Z,3.65
2023-03-16T14:40:21.964Z,3.92
2023-03-16T14:42:49.272Z,4.03
2023-03-16T14:45:17.619Z,3.97
2023-03-16T14:47:48.453Z,3.53
2023-03-16T14:50:25.946Z,3.38
2023-03-16T14:52:56.562Z,3.80
2023-03-16T14:55:24.878Z,3.60
2023-03-16T14:57:51.929Z,3.70
2023-03-16T15:00:22.175Z,3.50
2023-03-16T15:03:08.181Z,3.17
2023-03-16T15:05:42.283Z,2.85
2023-03-16T15:08:43.518Z,3.40
2023-03-16T15:11:10.932Z,3.35
2023-03-16T15:13:58.218Z,2.50
2023-03-16T15:16:26.139Z,3.15
2023-03-16T15:18:53.302Z,3.40
2023-03-16T15:21:25.149Z,2.50
2023-03-16T15:23:52.315Z,3.30
2023-03-16T15:26:26.280Z,2.97
2023-03-16T15:28:57.279Z,3.70
2023-03-16T15:31:24.567Z,3.03
2023-03-16T15:33:51.713Z,3.58
2023-03-16T15:36:22.378Z,3.03
2023-03-16T15:38:53.224Z,3.72
2023-03-16T15:41:20.561Z,3.90
2023-03-16T15:43:47.611Z,3.78
2023-03-16T15:46:15.090Z,3.38
2023-03-16T15:48:44.475Z,3.33
2023-03-16T15:51:27.362Z,3.45
2023-03-16T15:54:01.885Z,4.57
2023-03-16T15:56:41.162Z,5.10
2023-03-16T15:59:17.013Z,4.30
2023-03-16T16:01:47.639Z,4.40
2023-03-16T16:04:19.871Z,4.50
2023-03-16T16:06:48.726Z,4.50
2023-03-16T16:09:16.430Z,3.58
2023-03-16T16:11:44.223Z,3.83
2023-03-16T16:14:16.214Z,4.50
2023-03-16T16:16:46.145Z,3.70
2023-03-16T16:19:18.925Z,4.55
2023-03-16T16:21:47.478Z,4.80
2023-03-16T16:24:15.643Z,3.72
2023-03-16T16:26:51.930Z,4.00
2023-03-16T16:29:24.525Z,3.28
2023-03-16T16:31:52.383Z,3.17
2023-03-16T16:34:24.530Z,3.53
2023-03-16T16:36:52.469Z,3.70
2023-03-16T16:39:20.664Z,3.87
2023-03-16T16:41:51.358Z,3.67
2023-03-16T16:44:27.431Z,3.57
2023-03-16T16:46:55.554Z,4.23
2023-03-16T16:49:31.243Z,3.60
2023-03-16T16:51:59.348Z,3.50
2023-03-16T16:54:31.111Z,3.60
2023-03-16T16:57:00.020Z,3.60
2023-03-16T16:59:37.042Z,3.17
2023-03-16T17:02:30.703Z,3.20
2023-03-16T17:04:57.946Z,3.83
2023-03-16T17:07:25.183Z,3.47
2023-03-16T17:09:52.280Z,3.27
2023-03-16T17:12:23.541Z,3.40
2023-03-16T17:14:51.690Z,3.63
2023-03-16T17:17:19.164Z,3.73
2023-03-16T17:19:48.248Z,3.40
2023-03-16T17:22:28.333Z,3.73
2023-03-16T17:24:55.656Z,3.80
2023-03-16T17:27:30.424Z,4.60
2023-03-16T17:29:58.587Z,3.87
2023-03-16T17:32:26.657Z,4.67
2023-03-16T17:34:54.255Z,4.10
2023-03-16T17:37:23.657Z,5.53
2023-03-16T17:39:52.056Z,4.80
2023-03-16T17:42:19.926Z,5.10
2023-03-16T17:44:53.239Z,4.70
2023-03-16T17:47:27.556Z,5.00
2023-03-16T17:49:56.945Z,6.77
2023-03-16T17:52:26.635Z,6.97
2023-03-16T17:54:54.832Z,5.47
2023-03-16T17:57:31.124Z,4.93
2023-03-16T18:00:00.823Z,6.33
2023-03-16T18:02:51.568Z,6.33
2023-03-16T18:05:28.768Z,7.43
2023-03-16T18:08:01.313Z,8.07
2023-03-16T18:10:31.327Z,8.27
2023-03-16T18:13:30.149Z,8.33
2023-03-16T18:15:58.808Z,8.40
2023-03-16T18:18:29.609Z,8.37
2023-03-16T18:21:00.454Z,9.40
2023-03-16T18:23:33.661Z,9.47
2023-03-16T18:26:03.395Z,9.67
2023-03-16T18:28:32.657Z,9.17
2023-03-16T18:31:00.496Z,9.73
2023-03-16T18:33:37.382Z,9.60
2023-03-16T18:36:17.754Z,9.97
2023-03-16T18:38:50.596Z,10.17
2023-03-16T18:41:28.365Z,10.00
2023-03-16T18:44:16.845Z,10.93
2023-03-16T18:46:44.830Z,10.40
2023-03-16T18:49:36.205Z,10.33
2023-03-16T18:52:12.626Z,9.70
2023-03-16T18:54:40.055Z,10.47
2023-03-16T18:57:18.793Z,9.20
2023-03-16T18:59:46.633Z,11.13
2023-03-16T19:02:23.018Z,9.80
2023-03-16T19:04:50.298Z,11.40
2023-03-16T19:07:32.496Z,10.23
2023-03-16T19:10:05.478Z,9.97
2023-03-16T19:12:32.641Z,10.07
2023-03-16T19:14:59.628Z,10.63
2023-03-16T19:17:26.804Z,11.17
2023-03-16T19:19:53.976Z,10.03
2023-03-16T19:22:21.927Z,10.87
2023-03-16T19:24:55.094Z,9.50
2023-03-16T19:27:29.049Z,10.10
2023-03-16T19:29:56.749Z,11.70
2023-03-16T19:32:24.005Z,10.03
2023-03-16T19:34:51.431Z,10.97
2023-03-16T19:37:19.856Z,10.17
2023-03-16T19:39:50.108Z,10.43
2023-03-16T19:42:33.882Z,10.40
2023-03-16T19:45:01.163Z,11.37
2023-03-16T19:47:35.005Z,11.80
2023-03-16T19:50:02.034Z,9.87
2023-03-16T19:52:31.401Z,11.53
2023-03-16T19:54:58.590Z,10.77
2023-03-16T19:57:26.567Z,11.73
2023-03-16T19:59:57.769Z,15.93
2023-03-16T20:02:39.093Z,23.67
2023-03-16T20:05:21.464Z,15.93
2023-03-16T20:07:48.854Z,13.40
2023-03-16T20:10:26.056Z,11.23
2023-03-16T20:12:57.598Z,13.53
2023-03-16T20:15:32.716Z,12.13
2023-03-16T20:18:00.276Z,11.10
2023-03-16T20:20:30.994Z,11.77
2023-03-16T20:22:59.764Z,11.30
2023-03-16T20:25:33.100Z,11.30
2023-03-16T20:28:02.197Z,10.83
2023-03-16T20:30:30.867Z,9.93
2023-03-16T20:32:58.299Z,12.87
2023-03-16T20:35:29.476Z,11.00
2023-03-16T20:37:57.091Z,13.60
2023-03-16T20:40:24.510Z,13.40
2023-03-16T20:42:52.362Z,14.57
2023-03-16T20:45:27.821Z,15.27
2023-03-16T20:47:55.381Z,14.43
2023-03-16T20:50:30.763Z,15.87
2023-03-16T20:52:57.977Z,16.53
2023-03-16T20:55:29.085Z,15.43
2023-03-16T20:57:57.512Z,15.50
2023-03-16T21:00:38.846Z,14.40
2023-03-16T21:03:22.407Z,15.57
2023-03-16T21:05:54.034Z,15.57
2023-03-16T21:08:21.553Z,16.00
2023-03-16T21:10:51.388Z,16.00
2023-03-16T21:13:29.597Z,15.00
2023-03-16T21:16:00.351Z,15.40
2023-03-16T21:18:27.930Z,16.97
2023-03-16T21:20:56.289Z,13.97
2023-03-16T21:23:24.301Z,14.53
2023-03-16T21:25:56.780Z,15.10
2023-03-16T21:28:26.708Z,15.30
2023-03-16T21:30:57.517Z,14.10
2023-03-16T21:33:38.949Z,14.03
2023-03-16T21:36:17.196Z,14.80
2023-03-16T21:38:46.817Z,14.90
2023-03-16T21:41:14.968Z,14.80
2023-03-16T21:43:43.106Z,15.13
2023-03-16T21:46:19.931Z,13.53
2023-03-16T21:48:58.110Z,14.80
2023-03-16T21:51:33.596Z,14.17
2023-03-16T21:54:01.731Z,13.87
2023-03-16T21:56:29.060Z,12.77
2023-03-16T21:58:56.186Z,13.27
2023-03-16T22:01:27.790Z,13.20
2023-03-16T22:04:01.795Z,12.70
2023-03-16T22:06:29.774Z,13.77
2023-03-16T22:08:59.732Z,14.87
2023-03-16T22:11:31.409Z,14.63
2023-03-16T22:13:59.628Z,14.77
2023-03-16T22:16:31.598Z,15.97
2023-03-16T22:18:59.017Z,13.33
2023-03-16T22:21:40.372Z,14.70
2023-03-16T22:24:23.629Z,14.83
2023-03-16T22:26:51.432Z,15.70
2023-03-16T22:29:29.121Z,15.17
2023-03-16T22:32:07.366Z,18.40
2023-03-16T22:34:48.402Z,16.40
2023-03-16T22:37:23.104Z,17.07
2023-03-16T22:39:50.767Z,17.03
2023-03-16T22:42:31.379Z,18.97
2023-03-16T22:44:58.694Z,15.93
2023-03-16T22:47:32.327Z,18.33
2023-03-16T22:49:59.659Z,19.83
2023-03-16T22:52:32.759Z,19.70
2023-03-16T22:55:01.808Z,19.13
2023-03-16T22:57:29.545Z,18.80
2023-03-16T22:59:57.399Z,19.53
2023-03-16T23:02:26.402Z,19.00
2023-03-16T23:04:53.449Z,18.83
2023-03-16T23:07:20.519Z,19.87
2023-03-16T23:09:48.535Z,18.50
2023-03-16T23:12:21.462Z,19.43
2023-03-16T23:14:48.710Z,18.93
2023-03-16T23:17:25.227Z,19.63
2023-03-16T23:19:52.288Z,19.23
2023-03-16T23:22:19.410Z,20.70
2023-03-16T23:24:46.422Z,19.70
2023-03-16T23:27:22.864Z,19.30
2023-03-16T23:29:50.070Z,19.97
2023-03-16T23:32:17.276Z,20.47
2023-03-16T23:34:44.661Z,20.80
2023-03-16T23:37:11.974Z,19.33
2023-03-16T23:39:39.847Z,20.37
2023-03-16T23:42:07.231Z,19.00
2023-03-16T23:44:34.775Z,18.70
2023-03-16T23:47:02.330Z,17.03
2023-03-16T23:49:32.967Z,19.33
2023-03-16T23:52:01.869Z,19.43
2023-03-16T23:54:31.732Z,20.63
2023-03-16T23:56:59.373Z,20.50
2023-03-16T23:59:26.715Z,19.30
